Time;durP1;ratioP1;P1;durP2;ratioP2;P2;SDS_P1;SDS_P2;PMS_P1;PMS_P2;Temp;Humidity;BMP_temperature;BMP_pressure;BME280_temperature;BME280_humidity;BME280_pressure;Samples;Min_cycle;Max_cycle;Signal;HPM_P1;HPM_P2
2023/04/23 00:00:30;;;;;;;;;33.00;30.20;;;;;14.53;42.35;98431.31;6004413;29;96826;-59
2023/04/23 00:03:35;;;;;;;;;32.00;30.00;;;;;14.52;41.57;98432.38;6020899;29;96512;-59
2023/04/23 00:06:42;;;;;;;;;33.40;30.00;;;;;14.56;41.23;98430.00;6021073;29;96512;-59
2023/04/23 00:09:46;;;;;;;;;33.00;30.50;;;;;14.51;41.48;98409.06;6005023;29;96897;-59
2023/04/23 00:12:50;;;;;;;;;31.40;29.40;;;;;14.51;41.71;98410.97;6021769;29;96440;-59
2023/04/23 00:15:55;;;;;;;;;32.80;30.00;;;;;14.50;41.34;98422.88;6022127;29;97500;-59
2023/04/23 00:18:59;;;;;;;;;30.00;29.00;;;;;14.44;41.46;98422.00;6005017;29;99464;-59
2023/04/23 00:22:02;;;;;;;;;31.80;30.00;;;;;14.43;41.78;98417.66;6021984;29;97090;-59
2023/04/23 00:25:07;;;;;;;;;33.60;31.00;;;;;14.45;41.46;98420.94;6020874;29;96261;-59
2023/04/23 00:28:10;;;;;;;;;33.00;30.00;;;;;14.43;41.92;98414.13;6020920;29;96471;-59
2023/04/23 00:31:15;;;;;;;;;33.60;30.40;;;;;14.37;42.13;98418.69;5996861;29;98769;-59
2023/04/23 00:34:18;;;;;;;;;36.40;32.00;;;;;14.33;42.23;98409.41;5998007;29;96773;-59
2023/04/23 00:37:21;;;;;;;;;32.50;30.00;;;;;14.28;42.37;98412.88;5997296;29;96855;-59
2023/04/23 00:40:25;;;;;;;;;33.40;30.00;;;;;14.22;42.27;98416.63;6010476;29;96662;-59
2023/04/23 00:43:28;;;;;;;;;29.00;28.00;;;;;14.15;42.40;98412.47;6011616;29;97119;-59
2023/04/23 00:46:33;;;;;;;;;34.60;30.40;;;;;13.80;43.09;98370.41;6012879;29;96784;-59
2023/04/23 00:49:38;;;;;;;;;29.00;28.00;;;;;13.94;42.79;98410.63;6019767;29;96305;-59
2023/04/23 00:52:41;;;;;;;;;29.80;27.80;;;;;13.88;43.16;98412.47;6020969;29;96474;-59
2023/04/23 00:55:45;;;;;;;;;31.00;30.00;;;;;13.74;43.47;98397.66;6020434;29;96286;-59
2023/04/23 00:58:48;;;;;;;;;29.50;28.50;;;;;13.78;43.34;98407.75;6003697;28;98827;-59
2023/04/23 01:01:55;;;;;;;;;29.60;27.60;;;;;13.77;43.51;98408.03;6004341;29;96568;-60
2023/04/23 01:05:01;;;;;;;;;35.00;32.00;;;;;13.78;43.27;98398.84;6005109;29;96356;-59
2023/04/23 01:08:06;;;;;;;;;30.40;27.80;;;;;13.78;43.63;98406.97;6019803;29;96297;-59
2023/04/23 01:11:09;;;;;;;;;32.00;29.50;;;;;13.74;43.85;98411.22;6004100;29;96700;-59
2023/04/23 01:14:12;;;;;;;;;31.60;27.80;;;;;13.74;43.85;98413.94;6002644;29;97380;-59
2023/04/23 01:17:18;;;;;;;;;29.00;27.00;;;;;13.56;43.78;98384.47;6003784;29;98867;-59
2023/04/23 01:20:21;;;;;;;;;28.20;27.80;;;;;13.63;44.37;98409.47;6003747;29;98377;-59
2023/04/23 01:23:27;;;;;;;;;32.00;27.00;;;;;13.60;44.18;98402.66;6020974;29;96296;-59
2023/04/23 01:26:31;;;;;;;;;30.00;28.80;;;;;13.51;44.64;98417.72;6004424;29;98597;-59
2023/04/23 01:29:35;;;;;;;;;29.00;28.00;;;;;13.46;44.35;98409.53;6019451;29;97073;-59
2023/04/23 01:32:40;;;;;;;;;26.60;26.00;;;;;13.47;44.22;98413.88;6002738;29;96772;-59
2023/04/23 01:35:46;;;;;;;;;31.00;28.00;;;;;13.45;44.18;98407.91;6018147;29;96392;-59
2023/04/23 01:38:51;;;;;;;;;29.00;26.00;;;;;13.40;44.58;98405.94;6002890;29;97319;-59
2023/04/23 01:41:55;;;;;;;;;29.00;26.00;;;;;13.40;44.03;98392.41;6002961;29;97064;-59
2023/04/23 01:44:59;;;;;;;;;26.20;24.60;;;;;13.54;43.85;98411.78;6002103;28;96799;-59
2023/04/23 01:48:02;;;;;;;;;30.80;28.00;;;;;13.58;43.77;98412.97;6002323;29;96946;-59
2023/04/23 01:51:06;;;;;;;;;26.00;25.00;;;;;13.60;43.49;98410.78;5995188;29;97648;-59
2023/04/23 01:54:11;;;;;;;;;31.00;29.00;;;;;13.57;44.00;98414.03;5996327;29;96544;-59
2023/04/23 01:57:15;;;;;;;;;29.40;27.00;;;;;13.55;44.05;98409.91;6008283;29;97227;-59
2023/04/23 02:00:19;;;;;;;;;31.00;30.00;;;;;13.55;43.81;98418.03;6002887;29;96332;-59
2023/04/23 02:03:23;;;;;;;;;28.20;26.80;;;;;13.49;43.81;98411.72;6002354;29;97046;-59
2023/04/23 02:06:26;;;;;;;;;28.00;26.60;;;;;13.44;43.82;98412.50;6020059;29;96743;-59
2023/04/23 02:09:31;;;;;;;;;33.40;30.00;;;;;13.44;43.78;98415.19;6002781;29;99166;-59
2023/04/23 02:12:36;;;;;;;;;30.00;28.00;;;;;13.41;43.80;98414.88;6002864;29;96640;-59
2023/04/23 02:15:41;;;;;;;;;33.60;30.00;;;;;13.39;43.54;98415.13;5987530;29;98691;-59
2023/04/23 02:18:45;;;;;;;;;31.40;29.60;;;;;13.36;43.81;98421.06;6018060;29;96307;-59
2023/04/23 02:21:48;;;;;;;;;28.00;25.00;;;;;13.27;44.67;98416.34;6018096;29;96935;-59
2023/04/23 02:24:54;;;;;;;;;31.00;29.20;;;;;13.25;44.56;98421.16;6019288;29;96609;-59
2023/04/23 02:27:58;;;;;;;;;34.00;30.00;;;;;13.25;45.13;98421.97;6002152;29;96321;-59
2023/04/23 02:31:02;;;;;;;;;32.00;27.00;;;;;13.27;45.17;98419.03;6019253;29;96492;-59
2023/04/23 02:34:05;;;;;;;;;25.75;23.00;;;;;13.20;45.16;98413.78;6019217;29;96409;-59
2023/04/23 02:37:08;;;;;;;;;27.50;26.50;;;;;13.10;45.65;98408.22;6002580;29;96756;-59
2023/04/23 02:40:13;;;;;;;;;28.00;26.80;;;;;12.96;45.88;98415.88;6018164;29;96409;-59
2023/04/23 02:43:17;;;;;;;;;26.00;24.00;;;;;12.83;46.42;98412.69;6018727;29;96910;-59
2023/04/23 02:46:20;;;;;;;;;29.00;25.00;;;;;12.78;46.40;98413.44;6017117;29;96629;-59
2023/04/23 02:49:24;;;;;;;;;25.00;23.75;;;;;12.70;46.54;98419.28;6002305;29;96501;-59
2023/04/23 02:52:28;;;;;;;;;27.20;25.20;;;;;12.58;46.87;98400.41;6017579;29;96967;-59
2023/04/23 02:55:33;;;;;;;;;26.40;24.00;;;;;12.66;46.98;98418.09;6001414;29;98521;-59
2023/04/23 02:58:36;;;;;;;;;24.00;22.50;;;;;12.64;46.84;98414.00;5986320;29;96734;-59
2023/04/23 03:01:40;;;;;;;;;27.80;24.00;;;;;12.58;46.97;98419.34;6022485;29;96655;-59
2023/04/23 03:04:45;;;;;;;;;23.25;23.00;;;;;12.49;47.18;98411.88;5991053;29;96706;-59
2023/04/23 03:07:49;;;;;;;;;23.20;22.00;;;;;12.34;47.56;98408.91;6006145;29;96451;-59
2023/04/23 03:10:53;;;;;;;;;24.50;21.00;;;;;12.28;48.07;98410.72;6021675;29;96364;-60
2023/04/23 03:13:57;;;;;;;;;27.00;24.20;;;;;12.23;48.01;98407.09;6017960;29;96491;-59
2023/04/23 03:17:01;;;;;;;;;24.00;23.00;;;;;12.19;48.33;98408.66;6005914;29;96531;-59
2023/04/23 03:20:09;;;;;;;;;26.50;24.75;;;;;12.11;48.25;98407.19;6021420;29;96668;-59
2023/04/23 03:23:14;;;;;;;;;24.20;23.00;;;;;12.04;48.47;98404.63;6004826;29;98441;-59
2023/04/23 03:26:18;;;;;;;;;25.25;23.00;;;;;12.04;48.57;98414.59;6005260;29;99035;-59
2023/04/23 03:29:22;;;;;;;;;26.00;23.25;;;;;11.86;48.90;98396.72;6021140;29;96372;-59
2023/04/23 03:32:25;;;;;;;;;27.00;25.40;;;;;11.98;48.60;98416.38;6021771;29;96942;-60
2023/04/23 03:35:29;;;;;;;;;25.50;24.00;;;;;12.01;48.85;98417.81;6021285;29;96281;-59
2023/04/23 03:38:35;;;;;;;;;28.00;25.00;;;;;12.03;48.57;98412.97;6021046;29;96504;-60
2023/04/23 03:41:41;;;;;;;;;26.60;25.00;;;;;12.06;48.57;98401.69;6021324;29;96409;-59
2023/04/23 03:44:46;;;;;;;;;28.00;27.00;;;;;12.14;48.44;98414.78;6021203;29;96517;-59
2023/04/23 03:47:49;;;;;;;;;30.25;26.25;;;;;12.19;48.75;98416.75;6019911;29;96764;-59
2023/04/23 03:50:53;;;;;;;;;29.00;28.00;;;;;12.26;47.96;98409.34;6005497;29;96443;-59
2023/04/23 03:54:08;;;;;;;;;27.60;25.20;;;;;12.29;48.31;98416.94;5997108;29;97194;-59
2023/04/23 03:57:19;;;;;;;;;29.60;28.60;;;;;12.32;48.09;98416.44;5998042;29;96441;-59
2023/04/23 04:00:48;;;;;;;;;31.00;29.00;;;;;12.34;48.01;98415.16;6014722;29;96489;-59
2023/04/23 04:03:51;;;;;;;;;32.00;29.50;;;;;12.38;48.07;98415.47;6005530;29;96521;-59
2023/04/23 04:06:55;;;;;;;;;28.00;27.25;;;;;12.47;47.90;98417.53;6001566;29;96926;-60
2023/04/23 04:10:03;;;;;;;;;30.00;28.00;;;;;12.56;48.21;98416.06;6012868;29;96327;-59
2023/04/23 04:13:07;;;;;;;;;31.00;28.60;;;;;12.67;47.61;98424.31;6020266;29;96541;-59
2023/04/23 04:16:11;;;;;;;;;31.50;28.50;;;;;12.78;47.81;98420.72;6021884;29;96398;-60
2023/04/23 04:19:15;;;;;;;;;32.00;27.40;;;;;12.90;47.40;98416.06;6021200;29;96587;-61
2023/04/23 04:22:18;;;;;;;;;33.75;30.00;;;;;13.02;47.42;98430.28;6003019;29;98955;-60
2023/04/23 04:25:22;;;;;;;;;28.00;26.50;;;;;13.12;47.12;98419.66;6017465;29;96445;-60
2023/04/23 04:28:27;;;;;;;;;30.00;25.50;;;;;13.25;47.35;98421.97;6003457;29;96867;-60
2023/04/23 04:31:31;;;;;;;;;30.00;28.00;;;;;13.41;47.72;98423.84;6014903;29;97599;-60
2023/04/23 04:34:37;;;;;;;;;26.60;25.00;;;;;13.32;47.40;98382.03;6020809;29;96322;-60
2023/04/23 04:37:40;;;;;;;;;29.00;26.00;;;;;13.71;47.13;98425.28;6021048;29;97070;-60
2023/04/23 04:40:44;;;;;;;;;29.60;26.00;;;;;13.85;47.11;98423.81;6021599;29;97006;-60
2023/04/23 04:43:49;;;;;;;;;29.80;27.80;;;;;14.03;47.12;98422.66;6019824;29;96396;-61
2023/04/23 04:46:52;;;;;;;;;34.00;30.00;;;;;14.18;46.42;98430.94;6019885;29;96888;-61
2023/04/23 04:49:56;;;;;;;;;27.50;25.00;;;;;14.36;46.16;98427.91;6003063;29;96293;-61
2023/04/23 04:53:00;;;;;;;;;30.00;28.80;;;;;14.55;45.72;98425.63;6021105;29;96340;-61
2023/04/23 04:56:03;;;;;;;;;30.00;28.40;;;;;14.72;45.39;98424.41;6020617;29;96939;-61
2023/04/23 04:59:08;;;;;;;;;26.60;25.40;;;;;14.91;45.02;98432.13;6017632;28;97012;-61
2023/04/23 05:02:11;;;;;;;;;31.00;29.80;;;;;15.10;44.35;98425.25;6015542;29;96872;-61
2023/04/23 05:05:15;;;;;;;;;31.00;28.50;;;;;15.34;43.70;98434.63;6002457;29;96336;-61
2023/04/23 05:08:20;;;;;;;;;33.00;29.40;;;;;15.52;43.54;98430.66;6019297;29;96408;-61
2023/04/23 05:11:24;;;;;;;;;33.00;30.00;;;;;15.76;43.14;98431.84;6018136;29;97010;-61
2023/04/23 05:14:28;;;;;;;;;36.00;30.00;;;;;15.96;42.40;98431.91;6019230;29;96862;-61
2023/04/23 05:17:32;;;;;;;;;32.00;30.00;;;;;16.16;41.26;98417.56;6016190;29;96448;-61
2023/04/23 05:20:35;;;;;;;;;32.40;30.00;;;;;16.34;41.29;98422.47;6020119;29;97218;-61
2023/04/23 05:23:39;;;;;;;;;32.60;30.00;;;;;16.53;41.53;98419.22;6021060;29;96297;-61
2023/04/23 05:26:42;;;;;;;;;37.00;32.00;;;;;16.69;41.23;98419.00;6018158;29;96368;-61
2023/04/23 05:29:47;;;;;;;;;37.40;32.00;;;;;16.80;40.68;98403.47;6020968;29;96488;-61
2023/04/23 05:32:50;;;;;;;;;34.50;30.00;;;;;17.10;40.36;98417.06;6021214;29;96322;-61
2023/04/23 05:35:54;;;;;;;;;34.50;30.50;;;;;17.30;39.86;98418.91;6020431;29;96494;-61
2023/04/23 05:38:58;;;;;;;;;36.00;31.60;;;;;17.48;39.36;98426.50;6018673;29;96645;-61
2023/04/23 05:42:01;;;;;;;;;32.00;29.00;;;;;17.68;39.28;98421.00;6008584;29;96268;-61
2023/04/23 05:45:07;;;;;;;;;28.00;25.80;;;;;17.92;39.23;98418.44;6020744;29;96879;-61
2023/04/23 05:48:11;;;;;;;;;33.00;30.00;;;;;18.16;38.92;98424.03;6014283;29;96954;-61
2023/04/23 05:51:15;;;;;;;;;32.50;30.00;;;;;18.39;38.42;98419.78;6017984;29;96868;-61
2023/04/23 05:54:19;;;;;;;;;31.20;28.60;;;;;18.58;38.04;98424.31;6016904;28;96738;-61
2023/04/23 05:57:22;;;;;;;;;25.80;25.40;;;;;18.80;37.43;98425.78;6017598;29;96651;-61
2023/04/23 06:00:27;;;;;;;;;31.60;28.00;;;;;19.02;37.45;98426.94;6016532;29;96524;-61
2023/04/23 06:03:31;;;;;;;;;29.60;27.20;;;;;19.35;36.91;98427.97;6019810;28;96458;-60
2023/04/23 06:06:35;;;;;;;;;29.60;28.40;;;;;19.67;37.03;98429.31;6020194;29;96886;-60
2023/04/23 06:09:38;;;;;;;;;29.00;28.00;;;;;19.94;35.71;98424.03;6019763;29;96535;-60
2023/04/23 06:12:41;;;;;;;;;27.40;26.40;;;;;20.22;34.89;98422.28;6002273;29;96802;-61
2023/04/23 06:15:46;;;;;;;;;27.60;26.60;;;;;20.59;35.13;98427.78;6019414;29;96124;-60
2023/04/23 06:18:49;;;;;;;;;28.75;26.50;;;;;21.01;35.63;98428.75;5996425;29;96688;-60
2023/04/23 06:21:53;;;;;;;;;27.40;25.00;;;;;21.37;34.04;98423.44;6002078;29;98471;-60
2023/04/23 06:24:56;;;;;;;;;26.00;24.00;;;;;21.52;33.51;98426.72;6016548;29;96838;-61
2023/04/23 06:28:00;;;;;;;;;30.00;26.00;;;;;21.68;33.16;98431.91;5998383;29;96487;-61
2023/04/23 06:31:10;;;;;;;;;30.20;27.60;;;;;21.85;33.56;98426.59;6001147;29;96492;-61
2023/04/23 06:34:14;;;;;;;;;28.25;26.00;;;;;21.98;33.83;98426.63;5998689;29;96295;-61
2023/04/23 06:37:17;;;;;;;;;28.20;24.20;;;;;22.13;33.10;98430.16;5999988;28;97915;-61
2023/04/23 06:40:21;;;;;;;;;29.75;27.75;;;;;22.28;33.68;98436.16;6008971;29;96299;-61
2023/04/23 06:43:25;;;;;;;;;30.40;28.20;;;;;22.36;32.77;98424.41;6007320;29;96553;-61
2023/04/23 06:47:05;;;;;;;;;31.60;28.60;;;;;22.64;33.54;98425.13;6012904;29;96469;-60
2023/04/23 06:50:09;;;;;;;;;32.40;30.00;;;;;22.85;33.62;98419.97;6044188;29;96439;-60
2023/04/23 06:53:12;;;;;;;;;35.00;31.20;;;;;22.99;32.19;98415.22;6043744;29;96421;-60
2023/04/23 06:56:15;;;;;;;;;28.80;26.80;;;;;23.02;31.84;98414.59;6044743;29;96287;-60
2023/04/23 06:59:19;;;;;;;;;36.60;30.60;;;;;22.99;31.93;98412.47;6045293;29;97985;-61
2023/04/23 07:02:28;;;;;;;;;31.25;29.00;;;;;23.14;31.73;98420.34;6044490;29;97259;-61
2023/04/23 07:05:31;;;;;;;;;33.00;30.00;;;;;23.30;31.58;98421.56;6045741;29;96797;-61
2023/04/23 07:08:34;;;;;;;;;32.75;29.75;;;;;23.50;31.63;98411.97;6046107;29;96212;-61
2023/04/23 07:11:38;;;;;;;;;31.00;27.60;;;;;23.70;31.23;98416.09;6043504;29;96287;-60
2023/04/23 07:14:41;;;;;;;;;26.25;23.25;;;;;23.93;31.76;98411.28;6042887;28;96375;-61
2023/04/23 07:17:46;;;;;;;;;27.00;24.50;;;;;24.26;31.65;98408.94;6043567;29;96264;-60
2023/04/23 07:20:50;;;;;;;;;29.75;28.00;;;;;24.54;31.20;98416.56;6039772;29;96286;-61
2023/04/23 07:23:53;;;;;;;;;26.20;23.80;;;;;24.78;30.88;98409.75;6025797;29;99026;-61
2023/04/23 07:26:56;;;;;;;;;26.60;25.00;;;;;25.08;29.79;98411.50;6027776;29;96972;-61
2023/04/23 07:30:00;;;;;;;;;24.50;21.50;;;;;25.39;29.47;98417.59;6044432;29;96250;-61
2023/04/23 07:33:05;;;;;;;;;23.40;22.20;;;;;25.75;29.54;98410.84;6026434;29;98407;-61
2023/04/23 07:36:09;;;;;;;;;31.80;30.00;;;;;25.97;28.99;98418.00;6044007;29;96256;-61
2023/04/23 07:39:12;;;;;;;;;28.20;25.80;;;;;25.95;27.63;98409.28;6043563;29;97051;-61
2023/04/23 07:42:15;;;;;;;;;27.20;25.20;;;;;26.19;28.68;98414.97;6044832;29;96323;-61
2023/04/23 07:45:19;;;;;;;;;28.00;25.00;;;;;26.47;27.96;98415.28;6049006;29;96889;-61
2023/04/23 07:48:24;;;;;;;;;28.40;26.00;;;;;26.71;27.60;98405.16;6049209;29;96359;-61
2023/04/23 07:51:28;;;;;;;;;25.00;24.00;;;;;26.82;26.49;98402.78;6032055;29;96800;-61
2023/04/23 07:54:31;;;;;;;;;28.00;27.00;;;;;27.00;27.50;98407.00;6048339;29;96321;-61
2023/04/23 07:57:35;;;;;;;;;27.20;26.20;;;;;27.22;25.79;98394.72;6032277;29;99007;-61
2023/04/23 08:00:38;;;;;;;;;22.00;21.00;;;;;27.50;25.98;98401.28;6049380;29;97806;-60
2023/04/23 08:03:43;;;;;;;;;26.00;24.00;;;;;27.68;26.50;98401.84;6037072;28;96960;-58
2023/04/23 08:06:47;;;;;;;;;27.40;26.00;;;;;27.78;26.07;98395.88;6053176;28;96260;-59
2023/04/23 08:09:50;;;;;;;;;26.00;26.00;;;;;28.00;26.29;98389.06;6052527;28;96398;-58
2023/04/23 08:12:53;;;;;;;;;22.50;20.50;;;;;28.30;25.05;98386.81;6051936;28;96456;-59
2023/04/23 08:15:56;;;;;;;;;20.00;20.00;;;;;28.43;24.27;98361.50;6052369;28;96635;-59
2023/04/23 08:19:01;;;;;;;;;16.00;15.00;;;;;28.74;23.37;98377.44;6049373;28;97727;-59
2023/04/23 08:22:09;;;;;;;;;11.00;11.00;;;;;28.87;24.06;98374.63;6049231;28;96268;-58
2023/04/23 08:25:13;;;;;;;;;14.00;14.00;;;;;29.20;23.45;98380.69;6052248;28;96909;-59
2023/04/23 08:28:16;;;;;;;;;15.00;15.00;;;;;29.46;22.76;98375.47;6051853;28;96344;-59
2023/04/23 08:31:20;;;;;;;;;13.20;12.00;;;;;29.60;21.79;98380.56;6049012;28;96388;-59
2023/04/23 08:34:30;;;;;;;;;11.40;11.40;;;;;29.76;21.70;98370.25;6050937;28;96969;-59
2023/04/23 08:37:39;;;;;;;;;14.80;14.00;;;;;30.01;22.88;98365.28;6052685;28;96216;-59
2023/04/23 08:40:43;;;;;;;;;19.20;17.60;;;;;30.29;22.95;98367.91;6049866;28;96314;-59
2023/04/23 08:43:51;;;;;;;;;18.00;18.00;;;;;30.60;22.43;98356.66;6051291;28;96312;-59
2023/04/23 08:46:55;;;;;;;;;20.00;19.00;;;;;30.71;20.91;98356.88;6049771;28;96273;-59
2023/04/23 08:50:01;;;;;;;;;19.40;17.00;;;;;30.89;21.73;98353.28;6049173;28;97171;-59
2023/04/23 08:53:06;;;;;;;;;14.20;13.80;;;;;30.80;21.68;98332.41;6050080;28;96717;-59
2023/04/23 08:56:10;;;;;;;;;18.00;17.00;;;;;30.91;21.31;98347.34;6048692;28;96793;-59
2023/04/23 08:59:13;;;;;;;;;18.40;16.80;;;;;30.16;20.88;98346.94;6048864;28;96413;-59
2023/04/23 09:02:17;;;;;;;;;16.00;15.00;;;;;29.93;22.33;98336.53;6051069;28;96332;-59
2023/04/23 09:05:22;;;;;;;;;16.00;15.20;;;;;30.11;23.31;98332.16;6049630;28;96877;-59
2023/04/23 09:08:26;;;;;;;;;17.60;17.00;;;;;30.25;21.87;98328.88;6051764;28;96322;-60
2023/04/23 09:11:30;;;;;;;;;16.80;16.80;;;;;30.25;20.91;98337.22;6050705;28;96345;-59
2023/04/23 09:14:34;;;;;;;;;17.00;16.00;;;;;30.32;21.85;98340.16;6049860;28;96338;-59
2023/04/23 09:17:39;;;;;;;;;16.20;16.00;;;;;30.09;21.19;98336.50;6050725;28;96190;-59
2023/04/23 09:20:44;;;;;;;;;14.25;14.00;;;;;29.75;21.75;98318.63;6048955;28;96359;-59
2023/04/23 09:23:51;;;;;;;;;18.00;16.40;;;;;29.55;22.03;98336.38;6050345;28;96298;-59
2023/04/23 09:26:55;;;;;;;;;14.60;14.00;;;;;29.39;22.33;98324.47;6051335;28;96379;-59
2023/04/23 09:30:10;;;;;;;;;16.00;16.00;;;;;29.21;22.46;98322.03;6596888;23;98781;31
2023/04/23 09:33:16;;;;;;;;;12.40;12.00;;;;;29.13;21.96;98314.69;6003584;28;97013;-59
2023/04/23 09:36:22;;;;;;;;;12.00;12.00;;;;;29.41;22.13;98313.81;6004651;28;96264;-59
2023/04/23 09:39:26;;;;;;;;;15.00;14.00;;;;;29.61;21.16;98316.31;6004497;28;96104;-59
2023/04/23 09:42:30;;;;;;;;;13.00;12.00;;;;;29.67;19.10;98300.16;6004726;28;97353;-59
2023/04/23 09:45:35;;;;;;;;;14.00;12.00;;;;;29.62;20.50;98297.66;6003962;28;96475;-59
2023/04/23 09:48:41;;;;;;;;;12.40;12.00;;;;;29.51;18.99;98307.72;6003663;28;97022;-59
2023/04/23 09:51:48;;;;;;;;;14.00;12.80;;;;;29.25;19.86;98294.38;6003085;28;96317;-59
2023/04/23 09:54:51;;;;;;;;;11.60;11.60;;;;;28.96;19.59;98295.59;6004899;28;96340;-59
2023/04/23 09:57:54;;;;;;;;;11.00;11.00;;;;;28.75;19.65;98303.34;6004200;28;96365;-58
2023/04/23 10:01:07;;;;;;;;;9.00;8.00;;;;;28.76;18.31;98293.88;6003074;28;96317;-61
2023/04/23 10:04:12;;;;;;;;;11.00;10.20;;;;;29.16;18.34;98285.41;5983440;29;98584;-61
2023/04/23 10:07:18;;;;;;;;;10.00;9.00;;;;;29.15;18.20;98281.81;6002087;29;96901;-61
2023/04/23 10:10:23;;;;;;;;;11.00;11.00;;;;;29.53;18.09;98283.16;5999904;28;96348;-61
2023/04/23 10:13:27;;;;;;;;;12.60;11.00;;;;;29.34;17.61;98283.09;6002193;28;97102;-61
2023/04/23 10:16:30;;;;;;;;;9.25;8.75;;;;;29.44;17.64;98271.44;5986620;29;96964;-60
2023/04/23 10:19:51;;;;;;;;;9.00;8.00;;;;;29.24;17.33;98281.63;6002488;29;96481;-61
2023/04/23 10:22:59;;;;;;;;;8.00;8.00;;;;;28.93;17.45;98273.31;6002120;29;96266;-61
2023/04/23 10:26:04;;;;;;;;;9.00;9.00;;;;;28.58;18.44;98259.28;6002653;28;96812;-61
2023/04/23 10:29:13;;;;;;;;;9.00;9.00;;;;;28.69;18.17;98265.91;6002118;29;96260;-61
2023/04/23 10:32:17;;;;;;;;;8.00;8.00;;;;;28.76;18.07;98257.81;6002270;29;96284;-61
2023/04/23 10:35:20;;;;;;;;;9.00;9.00;;;;;29.27;18.00;98253.94;6001630;29;96480;-61
2023/04/23 10:38:27;;;;;;;;;9.00;8.00;;;;;29.31;17.01;98261.63;5999399;29;96351;-61
2023/04/23 10:41:36;;;;;;;;;9.75;9.00;;;;;29.46;17.05;98256.03;6001449;29;97495;-61
2023/04/23 10:44:42;;;;;;;;;11.20;10.60;;;;;29.60;16.70;98258.34;6002173;29;96914;-61
2023/04/23 10:47:48;;;;;;;;;8.00;8.00;;;;;29.62;17.01;98250.44;6003237;29;96961;-61
2023/04/23 10:50:57;;;;;;;;;9.60;9.00;;;;;29.99;16.35;98234.22;6003169;29;96256;-61
2023/04/23 10:54:22;;;;;;;;;8.00;7.20;;;;;30.11;15.75;98229.31;5987843;29;96980;-61
2023/04/23 10:57:25;;;;;;;;;9.60;8.00;;;;;30.27;16.89;98234.78;6002449;29;96356;-61
2023/04/23 11:00:42;;;;;;;;;8.20;8.00;;;;;30.19;15.91;98238.63;6003249;28;96369;-61
2023/04/23 11:03:46;;;;;;;;;7.60;7.60;;;;;30.12;15.46;98239.25;6003396;28;96298;-61
2023/04/23 11:06:58;;;;;;;;;9.80;9.00;;;;;29.89;16.02;98234.78;6009288;29;96276;-61
2023/04/23 11:10:13;;;;;;;;;9.00;8.00;;;;;29.77;15.42;98241.25;6005359;29;96347;-60
2023/04/23 11:13:23;;;;;;;;;8.00;8.00;;;;;29.63;15.52;98219.53;5994062;29;98593;-61
2023/04/23 11:16:26;;;;;;;;;8.00;7.00;;;;;29.96;15.87;98207.13;6003734;28;96237;-60
2023/04/23 11:19:30;;;;;;;;;7.00;7.00;;;;;30.12;15.93;98217.03;6017538;28;96254;-61
2023/04/23 11:22:35;;;;;;;;;7.00;7.00;;;;;30.57;15.72;98211.94;6006426;28;96346;-60
2023/04/23 11:25:43;;;;;;;;;8.20;8.20;;;;;31.16;15.33;98201.06;6006913;28;96225;-60
2023/04/23 11:28:50;;;;;;;;;9.00;8.50;;;;;30.10;15.10;98201.91;6006645;29;96412;-60
2023/04/23 11:31:55;;;;;;;;;6.80;6.80;;;;;29.72;16.26;98219.31;5990703;29;97229;-60
2023/04/23 11:35:04;;;;;;;;;10.00;9.00;;;;;29.79;15.83;98210.34;6007399;28;96244;-61
2023/04/23 11:38:08;;;;;;;;;11.40;11.00;;;;;29.51;15.87;98211.31;5990294;29;97041;-60
2023/04/23 11:41:14;;;;;;;;;10.00;10.00;;;;;28.79;16.18;98213.50;6006534;29;96318;-60
2023/04/23 11:44:17;;;;;;;;;10.60;10.00;;;;;28.72;16.93;98209.78;5989839;28;96651;-59
2023/04/23 11:47:21;;;;;;;;;11.00;10.00;;;;;28.61;17.14;98209.44;6006921;28;96098;-60
2023/04/23 11:50:26;;;;;;;;;8.25;7.25;;;;;28.82;16.63;98209.22;6006995;28;96241;-60
2023/04/23 11:53:29;;;;;;;;;8.20;7.80;;;;;29.23;17.28;98202.28;6006867;28;96775;-60
2023/04/23 11:56:34;;;;;;;;;8.00;7.60;;;;;29.41;16.27;98197.19;6007133;29;96351;-59
2023/04/23 11:59:38;;;;;;;;;8.80;8.00;;;;;29.25;15.85;98202.75;5990866;29;96299;-60
2023/04/23 12:02:50;;;;;;;;;8.00;8.00;;;;;29.34;16.00;98200.59;6006368;28;96367;-59
2023/04/23 12:05:54;;;;;;;;;8.00;8.00;;;;;29.44;16.02;98169.50;6007022;28;96240;-60
2023/04/23 12:08:58;;;;;;;;;7.00;6.60;;;;;29.92;16.25;98206.25;5990837;29;96123;-60
2023/04/23 12:12:02;;;;;;;;;8.00;8.00;;;;;29.99;15.95;98185.00;6006676;29;96413;-59
2023/04/23 12:15:07;;;;;;;;;9.40;9.00;;;;;30.17;15.87;98179.78;5974766;29;96626;-60
2023/04/23 12:18:11;;;;;;;;;10.00;10.00;;;;;30.34;15.90;98187.66;5990089;29;98425;-59
2023/04/23 12:21:16;;;;;;;;;9.60;9.60;;;;;30.39;15.59;98192.94;6006382;29;96448;-60
2023/04/23 12:24:20;;;;;;;;;10.60;10.00;;;;;30.62;15.64;98178.25;5987208;28;96390;-59
2023/04/23 12:27:26;;;;;;;;;8.80;8.80;;;;;30.94;15.44;98174.00;5982727;29;96272;-59
2023/04/23 12:30:29;;;;;;;;;6.20;6.20;;;;;30.84;15.39;98163.50;5994600;28;96306;-59
2023/04/23 12:33:32;;;;;;;;;8.40;8.40;;;;;31.17;15.66;98169.25;6005685;28;96351;-58
2023/04/23 12:36:37;;;;;;;;;9.00;9.00;;;;;31.40;15.49;98177.53;6005089;28;96236;-59
2023/04/23 12:39:40;;;;;;;;;9.00;8.00;;;;;31.48;15.16;98165.31;5988560;28;96415;-59
2023/04/23 12:42:45;;;;;;;;;7.00;7.00;;;;;31.35;14.82;98156.41;5982757;29;96350;-59
2023/04/23 12:45:50;;;;;;;;;8.00;8.00;;;;;29.99;15.07;98154.41;6003744;29;96259;-60
2023/04/23 12:48:53;;;;;;;;;7.25;6.00;;;;;30.11;14.75;98145.09;5993553;29;96248;-59
2023/04/23 12:51:59;;;;;;;;;7.00;6.20;;;;;30.45;14.94;98132.22;5981987;29;97218;-60
2023/04/23 12:55:03;;;;;;;;;8.00;7.00;;;;;30.41;14.90;98156.38;5973739;29;96330;-60
2023/04/23 12:58:09;;;;;;;;;7.60;7.20;;;;;30.47;14.62;98147.41;5991652;28;96296;-60
2023/04/23 13:01:13;;;;;;;;;7.20;6.20;;;;;30.56;14.51;98147.16;6003628;28;97936;-59
2023/04/23 13:04:17;;;;;;;;;8.25;8.25;;;;;30.91;14.70;98133.84;6001619;28;96346;-59
2023/04/23 13:07:20;;;;;;;;;8.00;8.00;;;;;30.63;14.92;98129.78;6002250;28;96201;-60
2023/04/23 13:10:23;;;;;;;;;7.00;7.00;;;;;30.42;15.36;98150.47;5986010;28;98593;-60
2023/04/23 13:13:28;;;;;;;;;8.40;8.00;;;;;30.02;15.03;98150.91;6004418;28;96306;-60
2023/04/23 13:16:31;;;;;;;;;8.20;8.20;;;;;29.71;15.33;98145.50;6004427;28;96362;-59
2023/04/23 13:19:37;;;;;;;;;8.75;8.00;;;;;29.94;15.88;98131.69;6002323;28;96163;-59
2023/04/23 13:22:40;;;;;;;;;6.00;6.00;;;;;30.15;14.55;98117.38;5986569;28;96379;-58
2023/04/23 13:25:43;;;;;;;;;8.60;8.00;;;;;30.71;16.32;98112.84;6002277;28;96819;-60
2023/04/23 13:28:48;;;;;;;;;8.40;8.00;;;;;30.72;14.75;98117.22;6003858;28;96291;-59
2023/04/23 13:31:51;;;;;;;;;7.75;7.75;;;;;30.75;14.68;98110.09;5988193;28;98505;-59
2023/04/23 13:35:01;;;;;;;;;10.00;9.00;;;;;30.37;14.20;98111.03;6004782;28;96766;-59
2023/04/23 13:38:13;;;;;;;;;6.00;6.00;;;;;30.01;15.42;98109.56;5999975;29;96274;-59
2023/04/23 13:41:16;;;;;;;;;7.40;7.00;;;;;29.78;15.42;98103.94;5982992;29;96965;-59
2023/04/23 13:44:21;;;;;;;;;8.20;7.80;;;;;29.51;15.33;98104.97;6005004;28;96732;-59
2023/04/23 13:47:25;;;;;;;;;7.60;7.00;;;;;29.43;15.34;98101.22;6003359;28;96944;-60
2023/04/23 13:50:28;;;;;;;;;8.50;8.00;;;;;29.21;15.48;98090.81;6004659;28;96303;-60
2023/04/23 13:53:32;;;;;;;;;10.40;10.00;;;;;29.09;15.89;98094.53;6004570;28;97045;-60
2023/04/23 13:56:36;;;;;;;;;9.00;9.00;;;;;28.92;15.32;98083.03;5988353;29;96307;-60
2023/04/23 13:59:41;;;;;;;;;6.80;6.80;;;;;28.88;16.59;98084.94;6004840;28;96358;-60
2023/04/23 14:02:44;;;;;;;;;8.80;8.80;;;;;28.69;16.00;98085.63;6005258;29;96279;-60
2023/04/23 14:05:48;;;;;;;;;8.50;7.00;;;;;28.46;15.77;98079.91;6004862;28;96370;-59
2023/04/23 14:08:51;;;;;;;;;9.50;9.00;;;;;28.08;16.07;98085.25;6004114;29;97582;-60
2023/04/23 14:11:55;;;;;;;;;9.00;9.00;;;;;28.15;16.84;98066.06;5998492;29;97678;-60
2023/04/23 14:14:59;;;;;;;;;11.00;10.00;;;;;28.53;16.37;98076.53;5986705;29;96848;-60